createdAt,value
2023-05-05T00:00:16.616Z,4.80
2023-05-05T00:01:10.077Z,4.60
2023-05-05T00:01:43.613Z,5.00
2023-05-05T00:02:18.104Z,5.20
2023-05-05T00:02:51.709Z,4.70
2023-05-05T00:03:26.632Z,5.20
2023-05-05T00:04:00.368Z,5.10
2023-05-05T00:04:33.956Z,5.00
2023-05-05T00:05:08.447Z,4.90
2023-05-05T00:05:42.643Z,4.80
2023-05-05T00:06:16.493Z,4.60
2023-05-05T00:06:51.091Z,4.40
2023-05-05T00:07:24.864Z,4.50
2023-05-05T00:07:59.432Z,4.60
2023-05-05T00:08:33.469Z,4.10
2023-05-05T00:09:07.541Z,4.40
2023-05-05T00:09:41.876Z,4.70
2023-05-05T00:10:15.948Z,4.70
2023-05-05T00:10:50.949Z,4.60
2023-05-05T00:11:28.418Z,4.70
2023-05-05T00:12:51.093Z,4.80
2023-05-05T00:14:36.036Z,4.40
2023-05-05T00:16:12.157Z,4.40
2023-05-05T00:17:48.579Z,4.50
2023-05-05T00:19:16.264Z,4.70
2023-05-05T00:21:04.635Z,4.10
2023-05-05T00:21:37.965Z,4.20
2023-05-05T00:22:11.956Z,4.90
2023-05-05T00:22:45.110Z,5.10
2023-05-05T00:23:20.007Z,4.80
2023-05-05T00:23:53.588Z,5.10
2023-05-05T00:24:26.864Z,4.90
2023-05-05T00:25:00.161Z,4.80
2023-05-05T00:25:33.741Z,5.10
2023-05-05T00:26:07.043Z,4.60
2023-05-05T00:26:40.185Z,4.80
2023-05-05T00:27:13.450Z,5.00
2023-05-05T00:27:46.941Z,5.10
2023-05-05T00:28:20.212Z,4.90
2023-05-05T00:28:53.560Z,5.20
2023-05-05T00:29:26.896Z,4.70
2023-05-05T00:30:01.711Z,4.90
2023-05-05T00:30:35.242Z,4.90
2023-05-05T00:31:08.804Z,5.00
2023-05-05T00:31:42.420Z,4.80
2023-05-05T00:32:15.842Z,4.90
2023-05-05T00:32:51.314Z,5.00
2023-05-05T00:33:24.699Z,4.70
2023-05-05T00:33:57.922Z,4.90
2023-05-05T00:34:31.177Z,5.00
2023-05-05T00:35:06.900Z,4.90
2023-05-05T00:35:40.624Z,4.90
2023-05-05T00:36:15.026Z,4.40
2023-05-05T00:36:48.693Z,4.60
2023-05-05T00:37:22.013Z,4.70
2023-05-05T00:37:55.564Z,4.70
2023-05-05T00:38:29.038Z,5.00
2023-05-05T00:39:02.434Z,4.90
2023-05-05T00:39:35.811Z,4.80
2023-05-05T00:40:10.714Z,4.70
2023-05-05T00:40:44.012Z,4.90
2023-05-05T00:41:17.628Z,4.30
2023-05-05T00:41:50.899Z,4.60
2023-05-05T00:42:24.755Z,4.50
2023-05-05T00:42:59.713Z,4.30
2023-05-05T00:43:33.074Z,4.60
2023-05-05T00:44:06.515Z,4.60
2023-05-05T00:44:41.718Z,4.50
2023-05-05T00:45:15.962Z,4.50
2023-05-05T00:46:02.565Z,4.70
2023-05-05T00:46:36.112Z,4.60
2023-05-05T00:47:09.822Z,4.70
2023-05-05T00:47:52.506Z,4.50
2023-05-05T00:48:26.888Z,5.00
2023-05-05T00:49:01.526Z,4.60
2023-05-05T00:49:36.009Z,4.10
2023-05-05T00:50:10.123Z,4.60
2023-05-05T00:50:45.014Z,4.10
2023-05-05T00:51:19.095Z,4.30
2023-05-05T00:51:52.600Z,4.20
2023-05-05T00:52:26.604Z,4.30
2023-05-05T00:53:04.776Z,4.40
2023-05-05T00:53:41.464Z,4.90
2023-05-05T00:54:14.924Z,4.20
2023-05-05T00:54:48.505Z,4.50
2023-05-05T00:55:22.325Z,4.20
2023-05-05T00:55:55.653Z,4.40
2023-05-05T00:56:28.970Z,4.50
2023-05-05T00:57:05.567Z,4.70
2023-05-05T00:57:38.948Z,4.30
2023-05-05T00:58:13.497Z,4.30
2023-05-05T00:58:47.089Z,4.10
2023-05-05T00:59:21.273Z,4.30
2023-05-05T00:59:56.070Z,4.50
2023-05-05T01:00:30.280Z,4.40
2023-05-05T01:01:04.009Z,4.30
2023-05-05T01:01:37.633Z,4.60
2023-05-05T01:02:10.946Z,4.10
2023-05-05T01:02:45.000Z,4.20
2023-05-05T01:03:19.211Z,4.20
2023-05-05T01:03:53.597Z,4.30
2023-05-05T01:04:28.114Z,4.50
2023-05-05T01:05:03.817Z,4.50
2023-05-05T01:05:56.035Z,4.20
2023-05-05T01:06:49.143Z,4.30
2023-05-05T01:07:22.560Z,4.20
2023-05-05T01:08:21.133Z,4.40
2023-05-05T01:09:12.348Z,4.50
2023-05-05T01:10:20.756Z,4.50
2023-05-05T01:11:03.413Z,4.50
2023-05-05T01:11:52.035Z,4.10
2023-05-05T01:12:37.695Z,4.50
2023-05-05T01:13:29.064Z,4.40
2023-05-05T01:14:19.144Z,4.20
2023-05-05T01:15:12.683Z,4.40
2023-05-05T01:16:10.868Z,4.20
2023-05-05T01:16:59.535Z,4.40
2023-05-05T01:17:42.661Z,4.30
2023-05-05T01:18:24.750Z,4.20
2023-05-05T01:19:07.072Z,4.50
2023-05-05T01:19:58.182Z,4.20
2023-05-05T01:20:41.491Z,4.50
2023-05-05T01:21:29.222Z,4.60
2023-05-05T01:22:07.300Z,4.30
2023-05-05T01:22:45.851Z,4.20
2023-05-05T01:23:36.853Z,4.40
2023-05-05T01:24:47.751Z,4.30
2023-05-05T01:25:56.842Z,4.10
2023-05-05T01:26:43.408Z,4.40
2023-05-05T01:27:59.528Z,4.10
2023-05-05T01:28:50.088Z,4.10
2023-05-05T01:29:48.451Z,4.30
2023-05-05T01:30:55.378Z,4.00
2023-05-05T01:31:44.864Z,3.90
2023-05-05T01:32:25.216Z,4.00
2023-05-05T01:33:04.302Z,4.20
2023-05-05T01:33:46.473Z,4.40
2023-05-05T01:34:43.172Z,4.10
2023-05-05T01:35:27.407Z,3.90
2023-05-05T01:36:06.151Z,4.10
2023-05-05T01:36:44.427Z,4.20
2023-05-05T01:37:24.792Z,4.40
2023-05-05T01:38:09.878Z,4.00
2023-05-05T01:38:46.107Z,4.20
2023-05-05T01:39:22.205Z,4.20
2023-05-05T01:39:59.505Z,4.30
2023-05-05T01:40:38.496Z,3.90
2023-05-05T01:41:16.199Z,4.50
2023-05-05T01:41:53.915Z,4.00
2023-05-05T01:42:29.609Z,3.80
2023-05-05T01:43:06.568Z,4.30
2023-05-05T01:43:41.636Z,4.10
2023-05-05T01:44:16.947Z,4.20
2023-05-05T01:44:53.430Z,3.80
2023-05-05T01:45:32.353Z,4.20
2023-05-05T01:46:07.981Z,4.00
2023-05-05T01:46:41.496Z,4.00
2023-05-05T01:47:20.192Z,4.20
2023-05-05T01:47:56.213Z,4.10
2023-05-05T01:48:33.729Z,4.00
2023-05-05T01:51:24.734Z,3.90
2023-05-05T01:51:59.155Z,4.00
2023-05-05T01:52:34.399Z,3.90
2023-05-05T01:53:09.811Z,4.30
2023-05-05T01:53:43.979Z,4.30
2023-05-05T01:54:18.887Z,4.40
2023-05-05T01:54:53.528Z,4.20
2023-05-05T01:55:29.968Z,4.10
2023-05-05T01:56:04.083Z,4.60
2023-05-05T01:56:40.516Z,4.40
2023-05-05T01:57:15.346Z,4.60
2023-05-05T01:57:50.523Z,4.20
2023-05-05T01:58:26.361Z,4.60
2023-05-05T01:59:02.099Z,3.80
2023-05-05T01:59:38.262Z,3.80
2023-05-05T02:00:12.320Z,4.60
2023-05-05T02:00:49.883Z,4.20
2023-05-05T02:01:26.178Z,4.30
2023-05-05T02:02:02.994Z,4.20
2023-05-05T02:02:39.161Z,4.40
2023-05-05T02:03:14.987Z,4.10
2023-05-05T02:03:51.479Z,4.20
2023-05-05T02:04:28.370Z,4.40
2023-05-05T02:05:05.392Z,4.40
2023-05-05T02:05:40.288Z,4.30
2023-05-05T02:06:16.734Z,4.30
2023-05-05T02:06:53.318Z,4.10
2023-05-05T02:07:28.330Z,4.10
2023-05-05T02:08:04.359Z,4.20
2023-05-05T02:08:39.727Z,4.60
2023-05-05T02:09:14.659Z,4.50
2023-05-05T02:09:49.013Z,4.50
2023-05-05T02:10:22.423Z,4.10
2023-05-05T02:10:56.501Z,4.40
2023-05-05T02:11:30.192Z,4.30
2023-05-05T02:12:04.925Z,3.90
2023-05-05T02:12:41.396Z,4.40
2023-05-05T02:13:18.422Z,4.20
2023-05-05T02:13:53.445Z,4.00
2023-05-05T02:14:29.747Z,4.20
2023-05-05T02:15:04.098Z,4.40
2023-05-05T02:15:38.405Z,4.10
2023-05-05T02:16:13.512Z,4.10
2023-05-05T02:16:47.525Z,4.30
2023-05-05T02:17:23.265Z,3.80
2023-05-05T02:17:58.363Z,4.00
2023-05-05T02:18:35.917Z,4.10
2023-05-05T02:19:09.604Z,4.10
2023-05-05T02:19:46.050Z,3.70
2023-05-05T02:20:20.646Z,4.20
2023-05-05T02:20:54.627Z,3.70
2023-05-05T02:21:28.812Z,3.80
2023-05-05T02:22:02.802Z,3.90
2023-05-05T02:22:36.412Z,3.80
2023-05-05T02:23:10.048Z,4.10
2023-05-05T02:23:48.430Z,4.20
2023-05-05T02:24:22.036Z,3.70
2023-05-05T02:24:55.707Z,4.30
2023-05-05T02:25:38.652Z,4.10
2023-05-05T02:26:14.224Z,3.80
2023-05-05T02:26:50.508Z,3.90
2023-05-05T02:27:25.414Z,3.80
2023-05-05T02:28:01.037Z,3.70
2023-05-05T02:28:56.217Z,4.50
2023-05-05T02:29:34.858Z,3.90
2023-05-05T02:30:11.500Z,3.70
2023-05-05T02:30:50.477Z,3.90
2023-05-05T02:31:27.585Z,3.70
2023-05-05T02:32:07.068Z,3.40
2023-05-05T02:32:45.415Z,3.60
2023-05-05T02:33:21.645Z,3.50
2023-05-05T02:33:58.139Z,3.60
2023-05-05T02:34:36.903Z,3.50
2023-05-05T02:35:22.898Z,3.30
2023-05-05T02:35:57.701Z,3.40
2023-05-05T02:36:36.947Z,3.80
2023-05-05T02:37:13.036Z,3.70
2023-05-05T02:38:02.713Z,3.60
2023-05-05T02:38:43.309Z,3.10
2023-05-05T02:39:25.249Z,3.40
2023-05-05T02:40:02.880Z,3.50
2023-05-05T02:40:40.872Z,3.40
2023-05-05T02:41:19.191Z,3.80
2023-05-05T02:41:55.570Z,4.00
2023-05-05T02:42:38.843Z,3.80
2023-05-05T02:43:19.990Z,3.60
2023-05-05T02:43:55.696Z,3.70
2023-05-05T02:44:32.114Z,4.10
2023-05-05T02:45:11.533Z,3.80
2023-05-05T02:45:46.486Z,4.20
2023-05-05T02:46:20.145Z,3.80
2023-05-05T02:46:54.963Z,4.10
2023-05-05T02:47:37.810Z,3.70
2023-05-05T02:48:13.295Z,3.80
2023-05-05T02:48:46.854Z,3.60
2023-05-05T02:49:20.272Z,3.80
2023-05-05T02:49:54.615Z,3.70
2023-05-05T02:50:27.872Z,3.40
2023-05-05T02:51:07.997Z,3.50
2023-05-05T02:51:43.026Z,3.70
2023-05-05T02:52:23.057Z,3.70
2023-05-05T02:52:56.663Z,3.80
2023-05-05T02:53:30.438Z,3.60
2023-05-05T02:54:04.720Z,3.70
2023-05-05T02:54:38.113Z,3.50
2023-05-05T02:55:16.136Z,3.70
2023-05-05T02:55:53.986Z,3.90
2023-05-05T02:56:48.281Z,3.60
2023-05-05T02:57:31.776Z,3.70
2023-05-05T02:58:08.986Z,3.60
2023-05-05T02:59:15.335Z,3.90
2023-05-05T03:00:08.586Z,3.70
2023-05-05T03:00:45.898Z,3.90
2023-05-05T03:01:51.586Z,3.80
2023-05-05T03:02:35.730Z,3.80
2023-05-05T03:03:22.450Z,3.50
2023-05-05T03:04:17.845Z,3.80
2023-05-05T03:05:04.637Z,3.50
2023-05-05T03:05:46.015Z,3.60
2023-05-05T03:06:25.232Z,3.60
2023-05-05T03:07:04.336Z,3.50
2023-05-05T03:07:53.800Z,3.80
2023-05-05T03:08:35.279Z,4.30
2023-05-05T03:09:33.346Z,3.50
2023-05-05T03:10:14.050Z,3.50
2023-05-05T03:11:05.324Z,3.80
2023-05-05T03:11:46.693Z,4.00
2023-05-05T03:12:26.413Z,3.70
2023-05-05T03:13:10.610Z,3.70
2023-05-05T03:13:56.506Z,4.00
2023-05-05T03:14:41.262Z,3.80
2023-05-05T03:15:15.525Z,3.90
2023-05-05T03:15:52.751Z,4.10
2023-05-05T03:16:29.963Z,3.70
2023-05-05T03:17:04.381Z,4.00
2023-05-05T03:17:39.886Z,4.10
2023-05-05T03:18:15.879Z,4.30
2023-05-05T03:18:52.757Z,3.70
2023-05-05T03:19:28.048Z,3.80
2023-05-05T03:20:06.074Z,3.50
2023-05-05T03:20:41.102Z,3.60
2023-05-05T03:21:15.991Z,4.00
2023-05-05T03:21:49.588Z,3.50
2023-05-05T03:22:23.266Z,4.00
2023-05-05T03:22:57.500Z,4.10
2023-05-05T03:23:33.037Z,4.10
2023-05-05T03:24:17.193Z,4.00
2023-05-05T03:24:53.412Z,3.50
2023-05-05T03:25:45.871Z,3.60
2023-05-05T03:26:25.076Z,3.70
2023-05-05T03:26:58.416Z,3.60
2023-05-05T03:27:35.034Z,3.90
2023-05-05T03:28:08.468Z,3.50
2023-05-05T03:28:42.012Z,3.70
2023-05-05T03:29:23.368Z,3.50
2023-05-05T03:29:56.997Z,3.30
2023-05-05T03:30:30.895Z,3.50
2023-05-05T03:31:04.604Z,4.00
2023-05-05T03:31:38.221Z,3.20
2023-05-05T03:32:14.383Z,3.70
2023-05-05T03:32:47.783Z,3.30
2023-05-05T03:33:21.194Z,3.50
2023-05-05T03:33:54.482Z,3.70
2023-05-05T03:34:29.024Z,3.50
2023-05-05T03:35:03.468Z,3.80
2023-05-05T03:35:38.454Z,3.60
2023-05-05T03:36:13.165Z,3.80
2023-05-05T03:36:46.530Z,4.10
2023-05-05T03:37:20.952Z,3.90
2023-05-05T03:37:57.090Z,3.70
2023-05-05T03:38:30.366Z,4.10
2023-05-05T03:39:04.165Z,4.00
2023-05-05T03:39:38.705Z,4.00
2023-05-05T03:40:13.242Z,4.30
2023-05-05T03:40:47.534Z,4.20
2023-05-05T03:41:23.909Z,4.00
2023-05-05T03:41:57.638Z,3.50
2023-05-05T03:42:31.589Z,3.80
2023-05-05T03:43:05.033Z,4.10
2023-05-05T03:43:39.564Z,3.90
2023-05-05T03:44:13.024Z,3.80
2023-05-05T03:44:46.265Z,4.10
2023-05-05T03:45:19.846Z,4.00
2023-05-05T03:45:53.823Z,4.60
2023-05-05T03:46:27.051Z,3.80
2023-05-05T03:47:00.514Z,3.80
2023-05-05T03:47:34.345Z,4.30
2023-05-05T03:48:09.897Z,4.10
2023-05-05T03:48:43.976Z,3.90
2023-05-05T03:49:17.985Z,3.70
2023-05-05T03:49:52.682Z,3.60
2023-05-05T03:50:26.156Z,3.60
2023-05-05T03:50:59.942Z,3.30
2023-05-05T03:51:33.614Z,3.80
2023-05-05T03:52:06.801Z,3.10
2023-05-05T03:52:40.231Z,3.80
2023-05-05T03:53:13.464Z,3.50
2023-05-05T03:53:47.728Z,3.70
2023-05-05T03:54:21.474Z,3.60
2023-05-05T03:54:54.877Z,3.90
2023-05-05T03:55:28.152Z,3.90
2023-05-05T03:56:01.588Z,4.00
2023-05-05T03:56:35.045Z,4.20
2023-05-05T03:57:08.266Z,4.00
2023-05-05T03:57:41.523Z,3.90
2023-05-05T03:58:14.686Z,3.60
2023-05-05T03:58:48.667Z,3.90
2023-05-05T03:59:22.062Z,3.90
2023-05-05T03:59:55.979Z,3.70
2023-05-05T04:00:29.326Z,3.60
2023-05-05T04:01:02.575Z,3.50
2023-05-05T04:01:36.104Z,3.60
2023-05-05T04:02:09.459Z,4.00
2023-05-05T04:02:43.853Z,3.80
2023-05-05T04:03:18.246Z,3.70
2023-05-05T04:03:54.194Z,3.70
2023-05-05T04:04:27.784Z,3.80
2023-05-05T04:05:01.439Z,3.90
2023-05-05T04:05:35.277Z,3.90
2023-05-05T04:06:09.152Z,4.10
2023-05-05T04:06:42.403Z,4.10
2023-05-05T04:07:15.889Z,3.60
2023-05-05T04:07:50.180Z,4.00
2023-05-05T04:08:23.406Z,3.70
2023-05-05T04:08:56.919Z,3.90
2023-05-05T04:09:31.827Z,3.80
2023-05-05T04:10:06.051Z,3.60
2023-05-05T04:10:39.757Z,3.70
2023-05-05T04:11:13.337Z,3.90
2023-05-05T04:11:46.685Z,4.00
2023-05-05T04:12:20.179Z,3.80
2023-05-05T04:12:53.394Z,3.70
2023-05-05T04:13:26.643Z,3.80
2023-05-05T04:14:01.019Z,3.80
2023-05-05T04:14:34.773Z,3.60
2023-05-05T04:15:10.325Z,3.80
2023-05-05T04:15:46.717Z,3.70
2023-05-05T04:16:20.854Z,4.00
2023-05-05T04:16:54.239Z,3.90
2023-05-05T04:17:27.481Z,4.00
2023-05-05T04:18:01.038Z,3.90
2023-05-05T04:18:34.715Z,3.80
2023-05-05T04:19:08.475Z,3.90
2023-05-05T04:19:41.999Z,3.80
2023-05-05T04:20:15.412Z,3.50
2023-05-05T04:20:48.768Z,4.00
2023-05-05T04:21:22.816Z,3.60
2023-05-05T04:21:56.288Z,3.50
2023-05-05T04:22:29.611Z,3.70
2023-05-05T04:23:03.002Z,3.90
2023-05-05T04:23:36.459Z,3.90
2023-05-05T04:24:10.010Z,3.80
2023-05-05T04:24:43.460Z,3.90
2023-05-05T04:25:16.788Z,3.70
2023-05-05T04:25:50.370Z,3.80
2023-05-05T04:26:23.693Z,3.50
2023-05-05T04:26:58.037Z,3.60
2023-05-05T04:27:31.585Z,3.80
2023-05-05T04:28:05.534Z,3.60
2023-05-05T04:28:39.031Z,4.00
2023-05-05T04:29:12.421Z,4.10
2023-05-05T04:29:46.014Z,3.70
2023-05-05T04:30:19.521Z,3.80
2023-05-05T04:30:52.889Z,3.60
2023-05-05T04:31:26.420Z,3.70
2023-05-05T04:31:59.837Z,3.70
2023-05-05T04:32:33.566Z,3.30
2023-05-05T04:33:06.882Z,3.50
2023-05-05T04:33:40.513Z,3.60
2023-05-05T04:34:13.874Z,3.80
2023-05-05T04:34:47.272Z,4.00
2023-05-05T04:35:20.618Z,3.90
2023-05-05T04:35:54.156Z,3.70
2023-05-05T04:36:27.664Z,3.70
2023-05-05T04:37:01.212Z,3.80
2023-05-05T04:37:35.189Z,3.70
2023-05-05T04:38:08.448Z,3.90
2023-05-05T04:38:41.804Z,4.00
2023-05-05T04:39:15.191Z,3.80
2023-05-05T04:39:48.587Z,3.50
2023-05-05T04:40:22.009Z,4.10
2023-05-05T04:40:55.482Z,4.00
2023-05-05T04:41:30.108Z,4.00
2023-05-05T04:42:04.143Z,4.00
2023-05-05T04:42:37.862Z,3.90
2023-05-05T04:43:11.169Z,4.00
2023-05-05T04:43:44.868Z,4.30
2023-05-05T04:44:18.498Z,4.00
2023-05-05T04:44:51.953Z,4.20
2023-05-05T04:45:25.330Z,3.90
2023-05-05T04:45:58.846Z,4.00
2023-05-05T04:46:35.100Z,4.10
2023-05-05T04:47:08.481Z,3.90
2023-05-05T04:47:42.313Z,3.70
2023-05-05T04:48:15.786Z,3.90
2023-05-05T04:48:49.107Z,4.20
2023-05-05T04:49:22.231Z,4.10
2023-05-05T04:49:56.253Z,4.00
2023-05-05T04:50:29.743Z,3.90
2023-05-05T04:51:07.120Z,3.90
2023-05-05T04:51:43.563Z,3.90
2023-05-05T04:52:16.967Z,3.80
2023-05-05T04:52:52.503Z,3.80
2023-05-05T04:53:26.144Z,3.70
2023-05-05T04:53:59.399Z,3.80
2023-05-05T04:54:35.814Z,4.10
2023-05-05T04:55:10.787Z,3.80
2023-05-05T04:55:44.121Z,3.70
2023-05-05T04:56:17.358Z,3.80
2023-05-05T04:56:51.136Z,3.70
2023-05-05T04:57:24.513Z,3.90
2023-05-05T04:57:58.771Z,4.00
2023-05-05T04:58:32.279Z,4.20
2023-05-05T04:59:05.606Z,3.80
2023-05-05T04:59:39.165Z,3.80
2023-05-05T05:00:13.227Z,4.40
2023-05-05T05:00:46.528Z,3.70
2023-05-05T05:01:19.830Z,4.00
2023-05-05T05:01:53.104Z,3.80
2023-05-05T05:02:27.260Z,3.80
2023-05-05T05:03:00.684Z,3.90
2023-05-05T05:03:37.996Z,3.80
2023-05-05T05:04:11.381Z,3.80
2023-05-05T05:04:44.596Z,4.10
2023-05-05T05:05:20.282Z,4.20
2023-05-05T05:05:53.512Z,4.10
2023-05-05T05:06:27.415Z,3.90
2023-05-05T05:07:01.735Z,3.90
2023-05-05T05:07:35.184Z,4.40
2023-05-05T05:08:08.641Z,4.00
2023-05-05T05:08:41.876Z,4.10
2023-05-05T05:09:15.299Z,3.90
2023-05-05T05:09:48.580Z,3.90
2023-05-05T05:10:23.462Z,3.90
2023-05-05T05:10:56.792Z,4.20
2023-05-05T05:11:30.175Z,4.30
2023-05-05T05:12:04.051Z,3.80
2023-05-05T05:12:37.724Z,4.00
2023-05-05T05:13:12.969Z,4.20
2023-05-05T05:13:46.498Z,4.00
2023-05-05T05:14:19.770Z,4.20
2023-05-05T05:14:53.273Z,4.00
2023-05-05T05:15:26.925Z,4.10
2023-05-05T05:16:01.419Z,4.40
2023-05-05T05:16:34.957Z,4.30
2023-05-05T05:17:08.232Z,4.20
2023-05-05T05:17:41.675Z,4.10
2023-05-05T05:18:15.188Z,4.20
2023-05-05T05:18:48.527Z,4.50
2023-05-05T05:19:22.179Z,4.80
2023-05-05T05:19:56.498Z,4.50
2023-05-05T05:20:33.640Z,4.20
2023-05-05T05:21:07.717Z,3.90
2023-05-05T05:21:41.207Z,4.10
2023-05-05T05:22:17.848Z,4.10
2023-05-05T05:22:54.882Z,4.50
2023-05-05T05:23:28.348Z,4.40
2023-05-05T05:24:01.826Z,4.30
2023-05-05T05:24:36.238Z,4.90
2023-05-05T05:25:09.668Z,4.60
2023-05-05T05:25:43.574Z,4.30
2023-05-05T05:26:17.822Z,4.00
2023-05-05T05:26:52.002Z,4.20
2023-05-05T05:27:25.469Z,4.60
2023-05-05T05:28:09.354Z,4.00
2023-05-05T05:28:46.012Z,4.30
2023-05-05T05:29:20.621Z,4.40
2023-05-05T05:29:54.002Z,4.40
2023-05-05T05:30:27.514Z,4.10
2023-05-05T05:31:30.657Z,4.50
2023-05-05T05:32:27.897Z,4.60
2023-05-05T05:33:10.230Z,4.70
2023-05-05T05:33:44.037Z,4.60
2023-05-05T05:34:17.636Z,4.60
2023-05-05T05:34:51.214Z,4.60
2023-05-05T05:35:24.473Z,4.70
2023-05-05T05:35:57.842Z,4.50
2023-05-05T05:36:32.053Z,4.70
2023-05-05T05:37:05.469Z,5.20
2023-05-05T05:37:38.952Z,4.50
2023-05-05T05:38:13.000Z,5.00
2023-05-05T05:38:46.409Z,4.80
2023-05-05T05:39:19.802Z,4.90
2023-05-05T05:39:53.764Z,4.20
2023-05-05T05:40:27.386Z,4.70
2023-05-05T05:41:06.496Z,4.50
2023-05-05T05:41:39.912Z,4.30
2023-05-05T05:42:13.540Z,4.80
2023-05-05T05:42:46.876Z,4.60
2023-05-05T05:43:20.549Z,4.50
2023-05-05T05:43:53.922Z,4.40
2023-05-05T05:44:27.204Z,4.30
2023-05-05T05:45:00.664Z,4.60
2023-05-05T05:45:34.187Z,4.50
2023-05-05T05:46:09.163Z,4.60
2023-05-05T05:46:43.500Z,4.90
2023-05-05T05:47:19.632Z,4.60
2023-05-05T05:47:55.928Z,4.20
2023-05-05T05:48:29.706Z,4.70
2023-05-05T05:49:03.210Z,4.50
2023-05-05T05:49:37.232Z,4.10
2023-05-05T05:50:11.321Z,4.40
2023-05-05T05:50:44.717Z,3.90
2023-05-05T05:51:18.157Z,4.10
2023-05-05T05:51:51.702Z,4.00
2023-05-05T05:52:25.156Z,3.80
2023-05-05T05:52:58.569Z,3.90
2023-05-05T05:53:32.118Z,3.80
2023-05-05T05:54:05.571Z,4.00
2023-05-05T05:54:38.866Z,3.90
2023-05-05T05:55:12.352Z,3.70
2023-05-05T05:55:47.188Z,3.60
2023-05-05T05:56:20.568Z,3.90
2023-05-05T05:56:53.890Z,3.90
2023-05-05T05:57:28.149Z,3.90
2023-05-05T05:58:03.346Z,3.80
2023-05-05T05:58:37.381Z,3.60
2023-05-05T05:59:10.918Z,3.20
2023-05-05T05:59:44.990Z,3.50
2023-05-05T06:00:18.640Z,3.70
2023-05-05T06:00:53.079Z,3.30
2023-05-05T06:01:27.601Z,3.30
2023-05-05T06:02:01.708Z,3.20
2023-05-05T06:02:35.595Z,3.40
2023-05-05T06:03:09.048Z,3.00
2023-05-05T06:03:43.941Z,2.90
2023-05-05T06:04:17.396Z,3.20
2023-05-05T06:04:50.902Z,3.20
2023-05-05T06:05:24.199Z,3.10
2023-05-05T06:05:59.195Z,3.40
2023-05-05T06:06:32.545Z,3.60
2023-05-05T06:07:06.887Z,3.20
2023-05-05T06:07:42.646Z,3.30
2023-05-05T06:08:16.215Z,3.70
2023-05-05T06:08:52.198Z,3.90
2023-05-05T06:09:25.495Z,3.40
2023-05-05T06:10:01.385Z,3.60
2023-05-05T06:10:42.180Z,3.50
2023-05-05T06:11:18.596Z,3.70
2023-05-05T06:11:52.398Z,3.80
2023-05-05T06:12:25.720Z,3.60
2023-05-05T06:12:59.048Z,3.90
2023-05-05T06:13:32.519Z,3.50
2023-05-05T06:14:05.844Z,3.70
2023-05-05T06:14:39.789Z,3.70
2023-05-05T06:15:13.288Z,3.30
2023-05-05T06:15:46.655Z,3.30
2023-05-05T06:16:20.092Z,3.50
2023-05-05T06:16:53.897Z,3.50
2023-05-05T06:17:28.253Z,3.40
2023-05-05T06:18:02.829Z,3.50
2023-05-05T06:18:36.414Z,3.40
2023-05-05T06:19:10.885Z,3.30
2023-05-05T06:19:44.328Z,3.30
2023-05-05T06:20:17.685Z,3.10
2023-05-05T06:20:51.653Z,3.30
2023-05-05T06:21:25.740Z,3.30
2023-05-05T06:21:59.094Z,3.40
2023-05-05T06:22:32.928Z,3.40
2023-05-05T06:23:06.972Z,3.20
2023-05-05T06:23:42.521Z,3.20
2023-05-05T06:24:17.039Z,3.30
2023-05-05T06:24:50.479Z,3.10
2023-05-05T06:25:23.995Z,3.30
2023-05-05T06:25:57.622Z,3.30
2023-05-05T06:26:31.695Z,3.50
2023-05-05T06:27:05.784Z,3.30
2023-05-05T06:27:38.949Z,3.40
2023-05-05T06:28:12.239Z,3.60
2023-05-05T06:28:45.734Z,3.40
2023-05-05T06:29:18.958Z,3.40
2023-05-05T06:29:52.196Z,3.10
2023-05-05T06:30:26.382Z,3.40
2023-05-05T06:30:59.566Z,3.30
2023-05-05T06:31:33.008Z,3.30
2023-05-05T06:32:08.445Z,3.20
2023-05-05T06:32:41.694Z,3.20
2023-05-05T06:33:15.096Z,3.00
2023-05-05T06:33:48.285Z,3.00
2023-05-05T06:34:21.558Z,2.90
2023-05-05T06:34:54.804Z,3.20
2023-05-05T06:35:28.066Z,3.00
2023-05-05T06:36:01.486Z,3.00
2023-05-05T06:36:34.833Z,2.90
2023-05-05T06:37:08.106Z,2.90
2023-05-05T06:37:41.431Z,2.90
2023-05-05T06:38:14.865Z,2.80
2023-05-05T06:38:48.093Z,3.00
2023-05-05T06:39:21.503Z,2.90
2023-05-05T06:39:54.707Z,3.00
2023-05-05T06:40:27.909Z,2.80
2023-05-05T06:41:01.665Z,2.90
2023-05-05T06:41:35.338Z,2.70
2023-05-05T06:42:08.768Z,2.80
2023-05-05T06:42:42.159Z,2.70
2023-05-05T06:43:17.440Z,2.80
2023-05-05T06:43:54.450Z,2.90
2023-05-05T06:44:28.520Z,2.90
2023-05-05T06:45:01.731Z,2.90
2023-05-05T06:45:35.216Z,2.90
2023-05-05T06:46:08.634Z,2.80
2023-05-05T06:46:43.974Z,2.60
2023-05-05T06:47:17.416Z,2.90
2023-05-05T06:47:50.905Z,2.50
2023-05-05T06:48:24.259Z,2.70
2023-05-05T06:48:57.592Z,2.50
2023-05-05T06:49:31.503Z,3.00
2023-05-05T06:50:05.829Z,2.60
2023-05-05T06:50:39.216Z,2.80
2023-05-05T06:51:12.710Z,2.40
2023-05-05T06:51:45.969Z,2.60
2023-05-05T06:52:19.333Z,2.60
2023-05-05T06:52:53.393Z,2.40
2023-05-05T06:53:26.686Z,2.30
2023-05-05T06:53:59.959Z,2.60
2023-05-05T06:54:33.260Z,2.30
2023-05-05T06:55:07.314Z,2.20
2023-05-05T06:55:44.798Z,2.40
2023-05-05T06:56:18.311Z,2.20
2023-05-05T06:56:51.687Z,2.30
2023-05-05T06:57:24.980Z,2.40
2023-05-05T06:57:58.327Z,2.20
2023-05-05T06:58:31.986Z,2.20
2023-05-05T06:59:05.251Z,2.10
2023-05-05T06:59:38.424Z,2.40
2023-05-05T07:00:12.401Z,2.50
2023-05-05T07:00:45.700Z,2.30
2023-05-05T07:01:19.358Z,2.40
2023-05-05T07:01:52.718Z,2.10
2023-05-05T07:02:26.977Z,2.40
2023-05-05T07:03:00.545Z,2.40
2023-05-05T07:03:34.128Z,2.50
2023-05-05T07:04:07.527Z,2.40
2023-05-05T07:04:41.777Z,2.70
2023-05-05T07:05:15.212Z,2.30
2023-05-05T07:05:48.565Z,2.50
2023-05-05T07:06:21.968Z,2.40
2023-05-05T07:06:55.487Z,2.20
2023-05-05T07:07:28.800Z,2.20
2023-05-05T07:08:02.137Z,2.30
2023-05-05T07:08:35.702Z,2.50
2023-05-05T07:09:08.922Z,2.40
2023-05-05T07:09:42.327Z,2.30
2023-05-05T07:10:15.514Z,2.60
2023-05-05T07:10:48.992Z,2.60
2023-05-05T07:11:22.270Z,2.40
2023-05-05T07:11:55.632Z,2.40
2023-05-05T07:12:33.672Z,2.40
2023-05-05T07:13:08.450Z,2.20
2023-05-05T07:13:42.026Z,2.20
2023-05-05T07:14:15.400Z,2.70
2023-05-05T07:14:48.780Z,2.50
2023-05-05T07:15:27.701Z,2.30
2023-05-05T07:16:02.899Z,2.40
2023-05-05T07:16:37.428Z,2.50
2023-05-05T07:17:11.789Z,2.40
2023-05-05T07:17:45.164Z,2.20
2023-05-05T07:18:20.677Z,2.10
2023-05-05T07:19:07.846Z,2.30
2023-05-05T07:19:41.008Z,2.50
2023-05-05T07:20:14.283Z,2.40
2023-05-05T07:20:47.610Z,2.20
2023-05-05T07:21:21.119Z,2.40
2023-05-05T07:21:54.436Z,2.50
2023-05-05T07:22:27.669Z,2.10
2023-05-05T07:23:00.966Z,2.30
2023-05-05T07:23:34.669Z,2.30
2023-05-05T07:24:07.972Z,2.50
2023-05-05T07:24:41.202Z,2.40
2023-05-05T07:25:14.341Z,2.50
2023-05-05T07:25:47.559Z,2.50
2023-05-05T07:26:21.153Z,2.20
2023-05-05T07:26:54.460Z,2.30
2023-05-05T07:27:27.912Z,2.70
2023-05-05T07:28:01.519Z,2.60
2023-05-05T07:28:35.288Z,2.50
2023-05-05T07:29:08.612Z,2.50
2023-05-05T07:29:41.739Z,2.60
2023-05-05T07:30:17.583Z,2.50
2023-05-05T07:30:52.355Z,2.60
2023-05-05T07:31:26.844Z,2.20
2023-05-05T07:32:00.272Z,2.40
2023-05-05T07:32:33.710Z,2.70
2023-05-05T07:33:07.121Z,2.60
2023-05-05T07:33:40.480Z,2.40
2023-05-05T07:34:15.977Z,2.50
2023-05-05T07:34:49.166Z,2.50
2023-05-05T07:35:23.321Z,2.60
2023-05-05T07:35:56.487Z,2.50
2023-05-05T07:36:29.821Z,2.60
2023-05-05T07:37:04.335Z,2.50
2023-05-05T07:37:37.507Z,2.40
2023-05-05T07:38:11.121Z,2.40
2023-05-05T07:38:44.543Z,2.50
2023-05-05T07:39:19.578Z,2.50
2023-05-05T07:39:52.788Z,2.60
2023-05-05T07:40:26.125Z,2.60
2023-05-05T07:40:59.592Z,2.80
2023-05-05T07:41:33.372Z,2.70
2023-05-05T07:42:07.514Z,2.70
2023-05-05T07:42:40.929Z,2.50
2023-05-05T07:43:14.176Z,2.70
2023-05-05T07:43:47.539Z,2.50
2023-05-05T07:44:20.874Z,2.70
2023-05-05T07:44:54.145Z,2.50
2023-05-05T07:45:29.056Z,2.60
2023-05-05T07:46:02.407Z,2.60
2023-05-05T07:46:35.930Z,2.50
2023-05-05T07:47:09.303Z,2.70
2023-05-05T07:47:42.645Z,2.40
2023-05-05T07:48:15.988Z,2.70
2023-05-05T07:48:49.271Z,2.70
2023-05-05T07:49:23.052Z,2.60
2023-05-05T07:49:56.448Z,2.60
2023-05-05T07:50:30.236Z,2.20
2023-05-05T07:51:03.614Z,2.50
2023-05-05T07:51:37.133Z,2.40
2023-05-05T07:52:10.506Z,2.40
2023-05-05T07:52:49.876Z,2.50
2023-05-05T07:53:31.470Z,2.50
2023-05-05T07:54:05.416Z,2.70
2023-05-05T07:54:38.684Z,2.60
2023-05-05T07:55:12.241Z,2.70
2023-05-05T07:55:45.532Z,2.70
2023-05-05T07:56:19.339Z,2.50
2023-05-05T07:56:54.480Z,2.70
2023-05-05T07:57:31.178Z,2.50
2023-05-05T07:58:04.594Z,2.60
2023-05-05T07:58:37.863Z,2.50
2023-05-05T07:59:11.842Z,2.60
2023-05-05T07:59:45.474Z,2.40
2023-05-05T08:00:19.777Z,2.50
2023-05-05T08:00:53.204Z,2.20
2023-05-05T08:01:26.499Z,2.40
2023-05-05T08:01:59.771Z,2.60
2023-05-05T08:02:33.176Z,2.20
2023-05-05T08:03:08.981Z,2.20
2023-05-05T08:03:44.307Z,2.30
2023-05-05T08:04:17.828Z,2.30